Triumph — WDC9555 — position and weather

sailwx.info

Track history (hours):
 
Tides and Currents Weather Stations Pressure Air Temp Water Temp Dewpoint Dewpoint Depression Visibility Wind Speed Wind Dir Waves Ship Positions

Triumph

Owner: WESTERN TOWBOAT CO, SEATTLE, WA. More information available from US FCC via Universal Licensing System and Coast Guard Vessel Documentation Center.

Last reported at 2014-Nov-21 01:33 UTC. Time now 2014-Nov-21 02:13 UTC.
Position N 47°42' W 122°27'.

Length 24 m; draft 3 m.

Type: Tow > 200 m length. MMSI: 367103880.

Date/timePositionNaut miles runAvg speedWind from/ knotsBaromVisibWave heightAir tempDewpointWater temp
2014-Nov-21 01:33N 47°42' W 122°27'0 4.5
2014-Nov-21 01:33N 47°42' W 122°27'8 8.5
2014-Nov-21 00:33N 47°34' W 122°21'0 5.7
2014-Nov-21 00:33N 47°34' W 122°21'0 0.5
2014-Nov-20 23:34N 47°34' W 122°21'0 0.0
2014-Nov-20 13:17N 47°34' W 122°21'0 0.0
2014-Nov-20 13:15N 47°34' W 122°21'0 0.0
2014-Nov-20 12:33N 47°34' W 122°21'0 2.5
2014-Nov-20 12:30N 47°34' W 122°21'2 2.1
2014-Nov-20 11:33N 47°36' W 122°22'0 5.4
2014-Nov-20 11:29N 47°36' W 122°21'1 1.2
2014-Nov-20 10:33N 47°36' W 122°23'1 8.3
2014-Nov-20 10:29N 47°37' W 122°23'8 8.6
2014-Nov-20 09:33N 47°44' W 122°27'1 9.3
2014-Nov-20 09:29N 47°45' W 122°27'9 9.5
2014-Nov-20 08:34N 47°54' W 122°30'1 9.2
2014-Nov-20 08:24N 47°55' W 122°31'910.1
2014-Nov-20 07:33N 48°01' W 122°39'1010.2
2014-Nov-20 06:33N 48°10' W 122°46'9 9.4
2014-Nov-20 05:34N 48°20' W 122°47'1110.9
2014-Nov-20 04:33N 48°30' W 122°43'6 5.7
2014-Nov-20 03:33N 48°31' W 122°34'0 0.0
2014-Nov-20 02:33N 48°31' W 122°34'0 0.0
2014-Nov-20 01:33N 48°31' W 122°34'0 0.0
2014-Nov-20 00:33N 48°31' W 122°34'0 0.0
2014-Nov-19 23:33N 48°31' W 122°34'0 0.1
2014-Nov-19 22:33N 48°31' W 122°34'0 0.1
2014-Nov-19 21:33N 48°31' W 122°34'0 0.0
2014-Nov-19 20:34N 48°31' W 122°34'0 0.1
2014-Nov-19 19:33N 48°31' W 122°34'0 0.1
2014-Nov-19 18:34N 48°31' W 122°34'0 0.0
2014-Nov-19 17:33N 48°31' W 122°34'0 0.0
2014-Nov-19 16:33N 48°31' W 122°34'0 0.0
2014-Nov-19 15:34N 48°31' W 122°34'0 0.0
2014-Nov-19 14:33N 48°31' W 122°34'0 0.3
2014-Nov-19 13:34N 48°31' W 122°35'2 1.8
2014-Nov-19 12:33N 48°31' W 122°37'4 3.8
2014-Nov-19 11:33N 48°31' W 122°43'5 4.6
2014-Nov-19 10:34N 48°26' W 122°44'22 4.0
2014-Nov-19 05:06N 48°05' W 122°38'4 5.9
2014-Nov-19 04:30N 48°01' W 122°37'1 6.2
2014-Nov-19 04:18N 48°00' W 122°36'4 6.0
2014-Nov-19 03:33N 47°57' W 122°32'1 6.0
2014-Nov-19 03:27N 47°57' W 122°31'5 5.8
2014-Nov-19 02:33N 47°52' W 122°28'0 6.0
2014-Nov-19 02:32N 47°52' W 122°28'7 6.6
2014-Nov-19 01:34N 47°45' W 122°26'0 5.6
2014-Nov-19 01:33N 47°45' W 122°26'6 6.4
2014-Nov-19 00:33N 47°39' W 122°27'0 6.4
2014-Nov-19 00:32N 47°39' W 122°27'6 6.2
2014-Nov-18 23:34N 47°33' W 122°26'0 6.1
2014-Nov-18 23:32N 47°33' W 122°26'6 6.2
2014-Nov-18 22:33N 47°27' W 122°23'5 5.2
2014-Nov-18 21:33N 47°22' W 122°22'4 5.7
2014-Nov-18 20:52N 47°19' W 122°27'2 5.0
2014-Nov-18 20:33N 47°18' W 122°26'0 5.8
2014-Nov-18 20:32N 47°17' W 122°26'2 2.0
2014-Nov-18 19:30N 47°17' W 122°23'0 0.0
2014-Nov-18 18:33N 47°17' W 122°23'0 0.0
2014-Nov-18 16:32N 47°17' W 122°23'0 0.0
2014-Nov-18 14:09N 47°17' W 122°23'1 0.9
2014-Nov-18 13:33N 47°17' W 122°24'4 4.0
2014-Nov-18 12:34N 47°20' W 122°27'5 5.4
2014-Nov-18 11:33N 47°25' W 122°23'2 6.8
2014-Nov-18 11:15N 47°26' W 122°24'5 7.3
2014-Nov-18 10:34N 47°31' W 122°26'0 7.5
2014-Nov-18 10:30N 47°32' W 122°26'5 5.6
2014-Nov-18 09:33N 47°36' W 122°22'0 4.1
2014-Nov-18 09:30N 47°36' W 122°21'0 0.5
2014-Nov-18 08:33N 47°35' W 122°21'0 0.0
2014-Nov-18 08:30N 47°35' W 122°21'1 1.2
2014-Nov-18 07:33N 47°34' W 122°21'0 0.0
2014-Nov-18 07:29N 47°34' W 122°21'0 0.0
2014-Nov-16 06:24N 47°34' W 122°21'0 0.0
2014-Nov-16 06:22N 47°34' W 122°21'1 0.9
2014-Nov-16 05:33N 47°33' W 122°21'0 2.3
2014-Nov-16 05:32N 47°33' W 122°21'4 4.2
2014-Nov-16 04:33N 47°37' W 122°24'0 3.2
2014-Nov-16 04:32N 47°37' W 122°24'6 6.3
2014-Nov-16 03:33N 47°43' W 122°28'0 5.7
2014-Nov-16 03:32N 47°43' W 122°28'7 7.1
2014-Nov-16 02:33N 47°50' W 122°28'0 5.4
2014-Nov-16 02:32N 47°50' W 122°28'6 6.3
2014-Nov-16 01:33N 47°56' W 122°31'5 5.3
2014-Nov-16 00:33N 47°59' W 122°37'10 4.5
2014-Nov-15 22:23N 48°08' W 122°43'0 4.2
2014-Nov-15 22:18N 48°08' W 122°44'5 5.0
2014-Nov-15 21:19N 48°12' W 122°48'0 6.8
2014-Nov-15 21:16N 48°13' W 122°48'5 7.0
2014-Nov-15 20:29N 48°18' W 122°47'5 6.7
2014-Nov-15 19:45N 48°23' W 122°45'1 6.2
2014-Nov-15 19:32N 48°24' W 122°45'6 5.9
2014-Nov-15 18:33N 48°30' W 122°45'0 5.1
2014-Nov-15 18:30N 48°30' W 122°45'5 4.9
2014-Nov-15 17:33N 48°35' W 122°45'2 4.7
2014-Nov-15 17:05N 48°37' W 122°45'3 5.6
2014-Nov-15 16:33N 48°40' W 122°44'4 4.1
2014-Nov-15 15:33N 48°44' W 122°46'6 5.6
2014-Nov-15 14:33N 48°47' W 122°53'6 5.7
2014-Nov-15 13:33N 48°50' W 123°00'5 5.4
2014-Nov-15 12:33N 48°53' W 123°07'6 6.2
2014-Nov-15 11:33N 48°58' W 123°14'6 6.1
2014-Nov-15 10:34N 49°02' W 123°20'6 6.0
2014-Nov-15 09:33N 49°07' W 123°15'7 6.7
2014-Nov-15 08:33N 49°07' W 123°05'3 2.8
2014-Nov-15 07:33N 49°09' W 123°02'0 0.0
2014-Nov-15 06:33N 49°09' W 123°02'0 0.0
2014-Nov-15 05:33N 49°09' W 123°02'0 0.0
2014-Nov-15 04:33N 49°09' W 123°02'0 0.0
2014-Nov-15 03:32N 49°09' W 123°02'0 0.0
2014-Nov-15 02:33N 49°09' W 123°02'0 0.0
2014-Nov-15 01:33N 49°09' W 123°02'0 0.0
2014-Nov-15 00:33N 49°09' W 123°02'0 0.0
2014-Nov-14 23:33N 49°09' W 123°02'0 0.0
2014-Nov-14 22:33N 49°09' W 123°02'0 0.0
2014-Nov-14 21:33N 49°09' W 123°02'0 0.0
2014-Nov-14 20:33N 49°09' W 123°02'0 0.0
2014-Nov-14 19:33N 49°09' W 123°02'0 0.0
2014-Nov-14 18:33N 49°09' W 123°02'0 0.0
2014-Nov-14 17:33N 49°09' W 123°02'0 0.0
2014-Nov-14 16:33N 49°09' W 123°02'0 0.0
2014-Nov-14 15:33N 49°09' W 123°02'0 0.0
2014-Nov-14 14:33N 49°09' W 123°02'0 0.0
2014-Nov-14 12:33N 49°09' W 123°02'0 0.0
2014-Nov-14 11:33N 49°09' W 123°02'0 0.1
2014-Nov-14 10:33N 49°09' W 123°02'5 5.4
2014-Nov-14 09:33N 49°07' W 123°10'5 5.3
2014-Nov-14 08:33N 49°06' W 123°18'6 5.8
2014-Nov-14 07:33N 49°01' W 123°14'9 8.9
2014-Nov-14 06:33N 48°55' W 123°05'9 9.4
2014-Nov-14 05:33N 48°49' W 122°54'9 9.3
2014-Nov-14 04:33N 48°42' W 122°43'8 8.0
2014-Nov-14 03:35N 48°35' W 122°45'0 8.9
2014-Nov-14 03:33N 48°34' W 122°45'1 9.2
2014-Nov-14 03:30N 48°34' W 122°45'8 8.6
2014-Nov-14 02:33N 48°26' W 122°44'25 8.4
2014-Nov-13 23:32N 48°01' W 122°36'510.1
2014-Nov-13 23:05N 47°57' W 122°32'5 9.5
2014-Nov-13 22:33N 47°53' W 122°28'1 9.7
2014-Nov-13 22:25N 47°52' W 122°28'8 9.6
2014-Nov-13 21:33N 47°44' W 122°26'1 9.0
2014-Nov-13 21:29N 47°43' W 122°26'8 8.2
2014-Nov-13 20:33N 47°36' W 122°23'0 3.8
2014-Nov-13 20:29N 47°35' W 122°23'2 1.9
2014-Nov-13 19:33N 47°34' W 122°21'0 0.0
2014-Nov-13 19:29N 47°34' W 122°21'  
2014-Nov-11 14:29N 47°34' W 122°21'0 0.0
2014-Nov-11 14:27N 47°34' W 122°21'2 1.8
2014-Nov-11 13:34N 47°35' W 122°22'0 1.2
2014-Nov-11 13:32N 47°35' W 122°22'3 3.0
2014-Nov-11 12:33N 47°37' W 122°25'0 7.0
2014-Nov-11 12:32N 47°37' W 122°26'8 7.8
2014-Nov-11 11:33N 47°45' W 122°27'0 8.0
2014-Nov-11 11:32N 47°45' W 122°27'8 8.1
2014-Nov-11 10:33N 47°53' W 122°29'0 6.8
2014-Nov-11 10:32N 47°53' W 122°29'7 6.9
2014-Nov-11 09:33N 47°58' W 122°36'11 5.2
2014-Nov-11 07:30N 48°08' W 122°43'3 3.6
2014-Nov-11 06:33N 48°10' W 122°47'5 4.4
2014-Nov-11 05:30N 48°15' W 122°48'7 7.8
2014-Nov-11 04:33N 48°22' W 122°46'8 8.4
2014-Nov-11 03:33N 48°30' W 122°45'8 8.0
2014-Nov-11 02:34N 48°38' W 122°44'8 8.3
2014-Nov-11 01:33N 48°46' W 122°50'  
Track history (hours):
 
Tides and Currents Weather Stations Pressure Air Temp Water Temp Dewpoint Dewpoint Depression Visibility Wind Speed Wind Dir Waves Ship Positions

Triumph

Owner: WESTERN TOWBOAT CO, SEATTLE, WA. More information available from US FCC via Universal Licensing System and Coast Guard Vessel Documentation Center.

Last reported at 2014-Nov-21 01:33 UTC. Time now 2014-Nov-21 02:13 UTC.
Position N 47°42' W 122°27'.

Length 24 m; draft 3 m.

Type: Tow > 200 m length. MMSI: 367103880.

Date/timePositionNaut miles runAvg speedWind from/ knotsBaromVisibWave heightAir tempDewpointWater temp
2014-Nov-21 01:33N 47°42' W 122°27'0 4.5
2014-Nov-21 01:33N 47°42' W 122°27'8 8.5
2014-Nov-21 00:33N 47°34' W 122°21'0 5.7
2014-Nov-21 00:33N 47°34' W 122°21'0 0.5
2014-Nov-20 23:34N 47°34' W 122°21'0 0.0
2014-Nov-20 13:17N 47°34' W 122°21'0 0.0
2014-Nov-20 13:15N 47°34' W 122°21'0 0.0
2014-Nov-20 12:33N 47°34' W 122°21'0 2.5
2014-Nov-20 12:30N 47°34' W 122°21'2 2.1
2014-Nov-20 11:33N 47°36' W 122°22'0 5.4
2014-Nov-20 11:29N 47°36' W 122°21'1 1.2
2014-Nov-20 10:33N 47°36' W 122°23'1 8.3
2014-Nov-20 10:29N 47°37' W 122°23'8 8.6
2014-Nov-20 09:33N 47°44' W 122°27'1 9.3
2014-Nov-20 09:29N 47°45' W 122°27'9 9.5
2014-Nov-20 08:34N 47°54' W 122°30'1 9.2
2014-Nov-20 08:24N 47°55' W 122°31'910.1
2014-Nov-20 07:33N 48°01' W 122°39'1010.2
2014-Nov-20 06:33N 48°10' W 122°46'9 9.4
2014-Nov-20 05:34N 48°20' W 122°47'1110.9
2014-Nov-20 04:33N 48°30' W 122°43'6 5.7
2014-Nov-20 03:33N 48°31' W 122°34'0 0.0
2014-Nov-20 02:33N 48°31' W 122°34'0 0.0
2014-Nov-20 01:33N 48°31' W 122°34'0 0.0
2014-Nov-20 00:33N 48°31' W 122°34'0 0.0
2014-Nov-19 23:33N 48°31' W 122°34'0 0.1
2014-Nov-19 22:33N 48°31' W 122°34'0 0.1
2014-Nov-19 21:33N 48°31' W 122°34'0 0.0
2014-Nov-19 20:34N 48°31' W 122°34'0 0.1
2014-Nov-19 19:33N 48°31' W 122°34'0 0.1
2014-Nov-19 18:34N 48°31' W 122°34'0 0.0
2014-Nov-19 17:33N 48°31' W 122°34'0 0.0
2014-Nov-19 16:33N 48°31' W 122°34'0 0.0
2014-Nov-19 15:34N 48°31' W 122°34'0 0.0
2014-Nov-19 14:33N 48°31' W 122°34'0 0.3
2014-Nov-19 13:34N 48°31' W 122°35'2 1.8
2014-Nov-19 12:33N 48°31' W 122°37'4 3.8
2014-Nov-19 11:33N 48°31' W 122°43'5 4.6
2014-Nov-19 10:34N 48°26' W 122°44'22 4.0
2014-Nov-19 05:06N 48°05' W 122°38'4 5.9
2014-Nov-19 04:30N 48°01' W 122°37'1 6.2
2014-Nov-19 04:18N 48°00' W 122°36'4 6.0
2014-Nov-19 03:33N 47°57' W 122°32'1 6.0
2014-Nov-19 03:27N 47°57' W 122°31'5 5.8
2014-Nov-19 02:33N 47°52' W 122°28'0 6.0
2014-Nov-19 02:32N 47°52' W 122°28'7 6.6
2014-Nov-19 01:34N 47°45' W 122°26'0 5.6
2014-Nov-19 01:33N 47°45' W 122°26'6 6.4
2014-Nov-19 00:33N 47°39' W 122°27'0 6.4
2014-Nov-19 00:32N 47°39' W 122°27'6 6.2
2014-Nov-18 23:34N 47°33' W 122°26'0 6.1
2014-Nov-18 23:32N 47°33' W 122°26'6 6.2
2014-Nov-18 22:33N 47°27' W 122°23'5 5.2
2014-Nov-18 21:33N 47°22' W 122°22'4 5.7
2014-Nov-18 20:52N 47°19' W 122°27'2 5.0
2014-Nov-18 20:33N 47°18' W 122°26'0 5.8
2014-Nov-18 20:32N 47°17' W 122°26'2 2.0
2014-Nov-18 19:30N 47°17' W 122°23'0 0.0
2014-Nov-18 18:33N 47°17' W 122°23'0 0.0
2014-Nov-18 16:32N 47°17' W 122°23'0 0.0
2014-Nov-18 14:09N 47°17' W 122°23'1 0.9
2014-Nov-18 13:33N 47°17' W 122°24'4 4.0
2014-Nov-18 12:34N 47°20' W 122°27'5 5.4
2014-Nov-18 11:33N 47°25' W 122°23'2 6.8
2014-Nov-18 11:15N 47°26' W 122°24'5 7.3
2014-Nov-18 10:34N 47°31' W 122°26'0 7.5
2014-Nov-18 10:30N 47°32' W 122°26'5 5.6
2014-Nov-18 09:33N 47°36' W 122°22'0 4.1
2014-Nov-18 09:30N 47°36' W 122°21'0 0.5
2014-Nov-18 08:33N 47°35' W 122°21'0 0.0
2014-Nov-18 08:30N 47°35' W 122°21'1 1.2
2014-Nov-18 07:33N 47°34' W 122°21'0 0.0
2014-Nov-18 07:29N 47°34' W 122°21'0 0.0
2014-Nov-16 06:24N 47°34' W 122°21'0 0.0
2014-Nov-16 06:22N 47°34' W 122°21'1 0.9
2014-Nov-16 05:33N 47°33' W 122°21'0 2.3
2014-Nov-16 05:32N 47°33' W 122°21'4 4.2
2014-Nov-16 04:33N 47°37' W 122°24'0 3.2
2014-Nov-16 04:32N 47°37' W 122°24'6 6.3
2014-Nov-16 03:33N 47°43' W 122°28'0 5.7
2014-Nov-16 03:32N 47°43' W 122°28'7 7.1
2014-Nov-16 02:33N 47°50' W 122°28'0 5.4
2014-Nov-16 02:32N 47°50' W 122°28'6 6.3
2014-Nov-16 01:33N 47°56' W 122°31'5 5.3
2014-Nov-16 00:33N 47°59' W 122°37'10 4.5
2014-Nov-15 22:23N 48°08' W 122°43'0 4.2
2014-Nov-15 22:18N 48°08' W 122°44'5 5.0
2014-Nov-15 21:19N 48°12' W 122°48'0 6.8
2014-Nov-15 21:16N 48°13' W 122°48'5 7.0
2014-Nov-15 20:29N 48°18' W 122°47'5 6.7
2014-Nov-15 19:45N 48°23' W 122°45'1 6.2
2014-Nov-15 19:32N 48°24' W 122°45'6 5.9
2014-Nov-15 18:33N 48°30' W 122°45'0 5.1
2014-Nov-15 18:30N 48°30' W 122°45'5 4.9
2014-Nov-15 17:33N 48°35' W 122°45'2 4.7
2014-Nov-15 17:05N 48°37' W 122°45'3 5.6
2014-Nov-15 16:33N 48°40' W 122°44'4 4.1
2014-Nov-15 15:33N 48°44' W 122°46'6 5.6
2014-Nov-15 14:33N 48°47' W 122°53'6 5.7
2014-Nov-15 13:33N 48°50' W 123°00'5 5.4
2014-Nov-15 12:33N 48°53' W 123°07'6 6.2
2014-Nov-15 11:33N 48°58' W 123°14'6 6.1
2014-Nov-15 10:34N 49°02' W 123°20'6 6.0
2014-Nov-15 09:33N 49°07' W 123°15'7 6.7
2014-Nov-15 08:33N 49°07' W 123°05'3 2.8
2014-Nov-15 07:33N 49°09' W 123°02'0 0.0
2014-Nov-15 06:33N 49°09' W 123°02'0 0.0
2014-Nov-15 05:33N 49°09' W 123°02'0 0.0
2014-Nov-15 04:33N 49°09' W 123°02'0 0.0
2014-Nov-15 03:32N 49°09' W 123°02'0 0.0
2014-Nov-15 02:33N 49°09' W 123°02'0 0.0
2014-Nov-15 01:33N 49°09' W 123°02'0 0.0
2014-Nov-15 00:33N 49°09' W 123°02'0 0.0
2014-Nov-14 23:33N 49°09' W 123°02'0 0.0
2014-Nov-14 22:33N 49°09' W 123°02'0 0.0
2014-Nov-14 21:33N 49°09' W 123°02'0 0.0
2014-Nov-14 20:33N 49°09' W 123°02'0 0.0
2014-Nov-14 19:33N 49°09' W 123°02'0 0.0
2014-Nov-14 18:33N 49°09' W 123°02'0 0.0
2014-Nov-14 17:33N 49°09' W 123°02'0 0.0
2014-Nov-14 16:33N 49°09' W 123°02'0 0.0
2014-Nov-14 15:33N 49°09' W 123°02'0 0.0
2014-Nov-14 14:33N 49°09' W 123°02'0 0.0
2014-Nov-14 12:33N 49°09' W 123°02'0 0.0
2014-Nov-14 11:33N 49°09' W 123°02'0 0.1
2014-Nov-14 10:33N 49°09' W 123°02'5 5.4
2014-Nov-14 09:33N 49°07' W 123°10'5 5.3
2014-Nov-14 08:33N 49°06' W 123°18'6 5.8
2014-Nov-14 07:33N 49°01' W 123°14'9 8.9
2014-Nov-14 06:33N 48°55' W 123°05'9 9.4
2014-Nov-14 05:33N 48°49' W 122°54'9 9.3
2014-Nov-14 04:33N 48°42' W 122°43'8 8.0
2014-Nov-14 03:35N 48°35' W 122°45'0 8.9
2014-Nov-14 03:33N 48°34' W 122°45'1 9.2
2014-Nov-14 03:30N 48°34' W 122°45'8 8.6
2014-Nov-14 02:33N 48°26' W 122°44'25 8.4
2014-Nov-13 23:32N 48°01' W 122°36'510.1
2014-Nov-13 23:05N 47°57' W 122°32'5 9.5
2014-Nov-13 22:33N 47°53' W 122°28'1 9.7
2014-Nov-13 22:25N 47°52' W 122°28'8 9.6
2014-Nov-13 21:33N 47°44' W 122°26'1 9.0
2014-Nov-13 21:29N 47°43' W 122°26'8 8.2
2014-Nov-13 20:33N 47°36' W 122°23'0 3.8
2014-Nov-13 20:29N 47°35' W 122°23'2 1.9
2014-Nov-13 19:33N 47°34' W 122°21'0 0.0
2014-Nov-13 19:29N 47°34' W 122°21'  
2014-Nov-11 14:29N 47°34' W 122°21'0 0.0
2014-Nov-11 14:27N 47°34' W 122°21'2 1.8
2014-Nov-11 13:34N 47°35' W 122°22'0 1.2
2014-Nov-11 13:32N 47°35' W 122°22'3 3.0
2014-Nov-11 12:33N 47°37' W 122°25'0 7.0
2014-Nov-11 12:32N 47°37' W 122°26'8 7.8
2014-Nov-11 11:33N 47°45' W 122°27'0 8.0
2014-Nov-11 11:32N 47°45' W 122°27'8 8.1
2014-Nov-11 10:33N 47°53' W 122°29'0 6.8
2014-Nov-11 10:32N 47°53' W 122°29'7 6.9
2014-Nov-11 09:33N 47°58' W 122°36'11 5.2
2014-Nov-11 07:30N 48°08' W 122°43'3 3.6
2014-Nov-11 06:33N 48°10' W 122°47'5 4.4
2014-Nov-11 05:30N 48°15' W 122°48'7 7.8
2014-Nov-11 04:33N 48°22' W 122°46'8 8.4
2014-Nov-11 03:33N 48°30' W 122°45'8 8.0
2014-Nov-11 02:34N 48°38' W 122°44'8 8.3
2014-Nov-11 01:33N 48°46' W 122°50'  

Dump ship's entire track history